Heyworth, IL (61745)

12:21 AM CDT on April 02, 2015 (GMT -0500)
Out on the Farm | | Change Station
CLOSE
Current Station
Personal Weather Station
Location: Heyworth, IL
Elevation: 788 ft
Nearby Weather Stations

Elev 788 ft 40.31 °N, 88.95 °W | Updated 1 second ago

Partly Cloudy
Partly Cloudy
53.1 °F
Feels Like 53.1 °F
N
12.0
Wind Variable Wind from SE
Gusts 13.0 mph

Today
High -- | Low -- °F
--% Chance of Precip.
Yesterday
High -- | Low -- °F
Precip. -- in
6:38 AM 7:21 PM
Waxing Gibbous, 95% visible
Pressure 29.82 in
Visibility 10.0 miles
Clouds Clear
Dew Point 40 °F
Humidity 61%
Rainfall 0.00 in
Snow Depth Not available.
UV 0 out of 12
Pollen 8.80 out of 12
Air Quality Not available.
Flu Activity Not available.
METAR KBMI 020456Z AUTO 17019G26KT 10SM CLR 14/04 A2984 RMK AO2 T01440044 PK WND 17027/0427 SLP098

More Conditions Fewer Conditions

Pressure 29.82 in
Visibility 10.0 miles
Clouds Clear
Dew Point 40 °F
Humidity 61%
Rainfall 0.00 in
Snow Depth Not available.
UV 0 out of 12
Pollen 8.80 out of 12
Air Quality Not available.
Flu Activity Not available.
METAR KBMI 020456Z AUTO 17019G26KT 10SM CLR 14/04 A2984 RMK AO2 T01440044 PK WND 17027/0427 SLP098

More Conditions Fewer Conditions

10-Day Weather Forecast

Almanac

Astronomy

Apr. 02, 2015 Rise Set
Actual Time
Civil Twilight
Nautical Twilight
Astronomical Twilight
Moon
Length of Visible Light
Length of Day
Tomorrow will be .
, % of the Moon is Illuminated

Today's Extremes

State Highs State Lows

Community

WunderPhotos

Upload Photos

1,810,201 photos uploaded!

WunderBlogs® & News

Nearby

Air Quality

  Air Quality AQ Index Pollutant
Not available.

Snow Depth

Station Depth Elevation

Earthquake Activity

City Distance Mag. Time & Date
Minimum magnitude displayed is 2.5.

Coastal Water Temperatures

Place Temperature

Stations

Nearby Weather Stations

Station Location Temp. Windchill Dew Point Humidity Wind Precip. Elev Updated Type